createdAt,value
2023-02-15T00:00:49.748Z,41.17
2023-02-15T00:03:54.307Z,54.00
2023-02-15T00:06:58.772Z,59.10
2023-02-15T00:10:03.929Z,56.40
2023-02-15T00:13:08.042Z,52.22
2023-02-15T00:16:14.055Z,60.83
2023-02-15T00:19:20.303Z,59.60
2023-02-15T00:22:24.595Z,55.75
2023-02-15T00:25:29.095Z,45.58
2023-02-15T00:28:33.709Z,53.17
2023-02-15T00:31:38.556Z,60.83
2023-02-15T00:34:43.052Z,59.45
2023-02-15T00:37:47.425Z,58.17
2023-02-15T00:40:56.090Z,60.20
2023-02-15T00:44:00.767Z,58.22
2023-02-15T00:47:07.756Z,59.00
2023-02-15T00:50:12.238Z,41.95
2023-02-15T00:53:16.976Z,55.97
2023-02-15T00:56:21.570Z,57.95
2023-02-15T00:59:25.729Z,57.57
2023-02-15T01:02:30.248Z,49.80
2023-02-15T01:05:34.748Z,44.70
2023-02-15T01:08:39.538Z,57.73
2023-02-15T01:11:46.116Z,55.67
2023-02-15T01:14:50.222Z,52.53
2023-02-15T01:17:54.717Z,55.83
2023-02-15T01:20:59.523Z,58.47
2023-02-15T01:24:04.298Z,58.80
2023-02-15T01:27:08.719Z,60.17
2023-02-15T01:30:14.501Z,55.47
2023-02-15T01:33:18.847Z,55.83
2023-02-15T01:39:29.896Z,54.30
2023-02-15T01:42:34.667Z,56.50
2023-02-15T01:45:40.172Z,54.20
2023-02-15T01:48:51.491Z,50.78
2023-02-15T01:51:56.445Z,53.13
2023-02-15T01:55:03.271Z,58.22
2023-02-15T01:58:08.776Z,62.30
2023-02-15T02:01:13.108Z,54.00
2023-02-15T02:04:32.291Z,53.03
2023-02-15T02:07:41.919Z,58.65
2023-02-15T02:10:46.439Z,57.92
2023-02-15T02:13:54.463Z,55.53
2023-02-15T02:17:18.290Z,53.78
2023-02-15T02:20:45.827Z,54.70
2023-02-15T02:24:24.041Z,54.97
2023-02-15T02:27:48.467Z,55.33
2023-02-15T02:31:09.822Z,57.45
2023-02-15T02:34:28.765Z,56.00
2023-02-15T02:37:55.367Z,57.58
2023-02-15T02:41:30.670Z,50.65
2023-02-15T02:44:49.796Z,59.33
2023-02-15T02:48:16.267Z,56.50
2023-02-15T02:51:23.320Z,56.03
2023-02-15T02:54:28.855Z,54.35
2023-02-15T02:57:35.211Z,60.92
2023-02-15T03:00:47.355Z,63.40
2023-02-15T03:04:03.304Z,58.15
2023-02-15T03:07:12.533Z,64.03
2023-02-15T03:10:23.020Z,61.90
2023-02-15T03:13:29.364Z,61.28
2023-02-15T03:16:34.445Z,70.50
2023-02-15T03:22:51.675Z,61.15
2023-02-15T03:26:03.255Z,61.70
2023-02-15T03:29:12.370Z,74.97
2023-02-15T03:32:18.043Z,67.82
2023-02-15T03:35:26.440Z,62.75
2023-02-15T03:38:54.174Z,67.68
2023-02-15T03:42:01.835Z,72.15
2023-02-15T03:45:12.529Z,66.05
2023-02-15T03:48:18.279Z,65.10
2023-02-15T03:51:37.268Z,65.20
2023-02-15T03:54:45.682Z,61.63
2023-02-15T03:58:08.347Z,64.90
2023-02-15T04:01:58.545Z,64.57
2023-02-15T04:05:02.804Z,68.93
2023-02-15T04:08:07.546Z,65.45
2023-02-15T04:11:11.710Z,75.07
2023-02-15T04:14:34.589Z,67.03
2023-02-15T04:17:39.345Z,70.80
2023-02-15T04:21:06.174Z,60.15
2023-02-15T04:24:29.614Z,61.67
2023-02-15T04:27:34.180Z,67.18
2023-02-15T04:30:38.185Z,60.17
2023-02-15T04:33:44.824Z,70.13
2023-02-15T04:36:49.124Z,62.72
2023-02-15T04:39:53.718Z,51.47
2023-02-15T04:42:58.156Z,45.63
2023-02-15T04:46:03.290Z,61.58
2023-02-15T04:49:09.806Z,65.57
2023-02-15T04:52:14.300Z,58.60
2023-02-15T04:55:18.768Z,55.75
2023-02-15T04:58:23.055Z,60.35
2023-02-15T05:01:27.613Z,60.72
2023-02-15T05:04:32.266Z,59.88
2023-02-15T05:07:36.883Z,64.07
2023-02-15T05:10:41.649Z,41.83
2023-02-15T05:13:45.888Z,61.47
2023-02-15T05:16:50.554Z,58.58
2023-02-15T05:19:54.821Z,66.40
2023-02-15T05:22:59.092Z,61.33
2023-02-15T05:26:22.634Z,48.03
2023-02-15T05:29:27.155Z,66.03
2023-02-15T05:32:31.892Z,60.17
2023-02-15T05:35:36.777Z,72.45
2023-02-15T05:38:41.365Z,67.40
2023-02-15T05:41:46.121Z,62.67
2023-02-15T05:44:50.459Z,64.93
2023-02-15T05:47:55.224Z,62.58
2023-02-15T05:51:13.954Z,61.65
2023-02-15T05:54:18.655Z,58.92
2023-02-15T05:57:23.213Z,61.95
2023-02-15T06:00:27.742Z,58.33
2023-02-15T06:03:32.222Z,62.08
2023-02-15T06:06:36.844Z,60.75
2023-02-15T06:09:41.378Z,60.33
2023-02-15T06:12:46.281Z,47.30
2023-02-15T06:15:50.691Z,58.63
2023-02-15T06:18:55.150Z,46.42
2023-02-15T06:21:59.519Z,59.57
2023-02-15T06:25:04.512Z,70.80
2023-02-15T06:28:08.955Z,60.00
2023-02-15T06:31:13.363Z,63.17
2023-02-15T06:34:17.627Z,62.53
2023-02-15T06:37:22.059Z,66.13
2023-02-15T06:40:26.449Z,65.05
2023-02-15T06:43:30.674Z,61.47
2023-02-15T06:46:35.206Z,61.03
2023-02-15T06:49:39.640Z,64.80
2023-02-15T06:52:44.105Z,67.80
2023-02-15T06:55:48.451Z,72.57
2023-02-15T06:58:53.676Z,64.53
2023-02-15T07:01:58.556Z,70.53
2023-02-15T07:05:03.678Z,67.72
2023-02-15T07:08:08.078Z,63.75
2023-02-15T07:11:31.096Z,68.05
2023-02-15T07:14:35.444Z,61.08
2023-02-15T07:17:40.712Z,72.85
2023-02-15T07:20:45.165Z,58.03
2023-02-15T07:23:49.454Z,74.68
2023-02-15T07:26:54.030Z,69.28
2023-02-15T07:29:58.964Z,72.75
2023-02-15T07:33:21.988Z,70.68
2023-02-15T07:36:26.619Z,67.70
2023-02-15T07:39:31.096Z,57.50
2023-02-15T07:42:35.005Z,55.83
2023-02-15T07:45:39.785Z,76.67
2023-02-15T07:48:44.883Z,63.85
2023-02-15T07:54:53.297Z,84.47
2023-02-15T07:57:57.668Z,78.07
2023-02-15T08:01:05.034Z,61.85
2023-02-15T08:04:11.969Z,84.82
2023-02-15T08:07:16.339Z,73.40
2023-02-15T08:10:40.776Z,67.18
2023-02-15T08:13:55.683Z,75.18
2023-02-15T08:17:03.638Z,73.32
2023-02-15T08:20:09.504Z,74.85
2023-02-15T08:23:14.257Z,80.70
2023-02-15T08:26:18.676Z,66.80
2023-02-15T08:29:25.704Z,79.95
2023-02-15T08:32:30.119Z,74.50
2023-02-15T08:35:34.952Z,78.27
2023-02-15T08:38:39.960Z,77.35
2023-02-15T08:41:46.752Z,78.45
2023-02-15T08:44:52.583Z,77.18
2023-02-15T08:47:57.076Z,79.30
2023-02-15T08:51:11.443Z,80.40
2023-02-15T08:54:19.032Z,92.72
2023-02-15T08:57:23.376Z,74.75
2023-02-15T09:00:27.735Z,76.30
2023-02-15T09:03:32.426Z,85.32
2023-02-15T09:06:38.449Z,80.28
2023-02-15T09:09:42.953Z,68.13
2023-02-15T09:12:47.487Z,57.35
2023-02-15T09:15:51.610Z,81.40
2023-02-15T09:18:58.431Z,80.28
2023-02-15T09:22:02.903Z,64.68
2023-02-15T09:25:07.736Z,61.38
2023-02-15T09:28:12.064Z,63.58
2023-02-15T09:31:17.523Z,67.53
2023-02-15T09:34:23.505Z,63.05
2023-02-15T09:37:27.849Z,68.95
2023-02-15T09:40:38.481Z,69.47
2023-02-15T09:43:57.802Z,77.75
2023-02-15T09:47:23.650Z,74.63
2023-02-15T09:54:01.897Z,66.88
2023-02-15T09:57:34.032Z,66.32
2023-02-15T10:00:47.436Z,61.55
2023-02-15T10:03:52.141Z,68.95
2023-02-15T10:07:14.594Z,70.15
2023-02-15T10:10:50.007Z,58.38
2023-02-15T10:14:28.753Z,65.43
2023-02-15T10:17:52.015Z,63.85
2023-02-15T10:21:24.433Z,63.95
2023-02-15T10:24:42.114Z,62.88
2023-02-15T10:27:50.618Z,64.07
2023-02-15T10:31:22.143Z,61.03
2023-02-15T10:34:43.592Z,68.18
2023-02-15T10:38:04.989Z,68.90
2023-02-15T10:41:28.220Z,66.60
2023-02-15T10:44:41.726Z,61.83
2023-02-15T10:48:10.656Z,58.90
2023-02-15T10:51:55.406Z,61.47
2023-02-15T10:55:15.323Z,60.55
2023-02-15T10:58:26.718Z,49.25
2023-02-15T11:01:48.271Z,42.97
2023-02-15T11:05:14.886Z,54.85
2023-02-15T11:08:20.552Z,56.63
2023-02-15T11:11:31.560Z,52.25
2023-02-15T11:14:58.251Z,55.42
2023-02-15T11:18:21.439Z,56.28
2023-02-15T11:21:39.902Z,51.70
2023-02-15T11:24:46.694Z,53.75
2023-02-15T11:27:51.310Z,51.00
2023-02-15T11:30:57.945Z,56.47
2023-02-15T11:34:12.738Z,53.15
2023-02-15T11:37:21.723Z,55.25
2023-02-15T11:40:25.976Z,49.00
2023-02-15T11:43:39.086Z,43.43
2023-02-15T11:46:44.123Z,54.28
2023-02-15T11:49:48.592Z,45.22
2023-02-15T11:52:57.546Z,55.38
2023-02-15T11:56:04.962Z,61.45
2023-02-15T11:59:19.795Z,60.15
2023-02-15T12:02:27.517Z,60.45
2023-02-15T12:05:32.760Z,59.42
2023-02-15T12:08:44.798Z,53.17
2023-02-15T12:11:48.735Z,59.63
2023-02-15T12:15:01.910Z,59.60
2023-02-15T12:18:16.695Z,44.85
2023-02-15T12:21:40.683Z,54.77
2023-02-15T12:24:49.749Z,57.20
2023-02-15T12:27:54.322Z,59.90
2023-02-15T12:30:59.287Z,60.28
2023-02-15T12:34:10.801Z,55.35
2023-02-15T12:37:23.422Z,55.33
2023-02-15T12:40:31.618Z,60.90
2023-02-15T12:43:39.362Z,56.55
2023-02-15T12:46:47.523Z,62.20
2023-02-15T12:50:26.920Z,60.17
2023-02-15T12:53:34.191Z,56.08
2023-02-15T12:56:38.788Z,61.35
2023-02-15T12:59:57.203Z,63.08
2023-02-15T13:03:02.672Z,60.00
2023-02-15T13:06:08.414Z,61.97
2023-02-15T13:09:20.274Z,55.90
2023-02-15T13:12:31.609Z,55.03
2023-02-15T13:15:40.876Z,54.83
2023-02-15T13:18:47.909Z,62.08
2023-02-15T13:21:54.822Z,67.90
2023-02-15T13:25:04.252Z,58.00
2023-02-15T13:28:15.280Z,59.85
2023-02-15T13:31:21.896Z,59.08
2023-02-15T13:34:39.589Z,67.00
2023-02-15T13:38:02.031Z,64.03
2023-02-15T13:41:29.379Z,59.70
2023-02-15T13:44:52.313Z,61.80
2023-02-15T13:48:15.889Z,60.55
2023-02-15T13:51:42.553Z,64.90
2023-02-15T13:55:23.935Z,58.90
2023-02-15T13:58:40.451Z,67.15
2023-02-15T14:02:10.056Z,56.72
2023-02-15T14:05:33.530Z,63.25
2023-02-15T14:08:53.227Z,65.60
2023-02-15T14:12:28.383Z,59.97
2023-02-15T14:15:49.770Z,60.33
2023-02-15T14:19:09.876Z,68.97
2023-02-15T14:22:42.589Z,69.10
2023-02-15T14:25:55.230Z,64.68
2023-02-15T14:29:13.896Z,64.47
2023-02-15T14:32:32.300Z,70.28
2023-02-15T14:35:38.190Z,63.45
2023-02-15T14:39:06.118Z,67.57
2023-02-15T14:42:31.113Z,66.45
2023-02-15T14:45:45.460Z,67.22
2023-02-15T14:48:54.107Z,71.90
2023-02-15T14:52:02.223Z,63.25
2023-02-15T14:55:08.266Z,69.53
2023-02-15T14:58:14.458Z,60.05
2023-02-15T15:01:30.861Z,69.90
2023-02-15T15:04:45.800Z,69.47
2023-02-15T15:07:56.282Z,72.88
2023-02-15T15:11:42.588Z,77.07
2023-02-15T15:14:49.028Z,68.85
2023-02-15T15:18:08.873Z,65.38
2023-02-15T15:21:51.425Z,71.47
2023-02-15T15:25:32.737Z,73.40
2023-02-15T15:28:38.005Z,68.35
2023-02-15T15:31:55.989Z,77.05
2023-02-15T15:35:17.957Z,80.05
2023-02-15T15:38:58.532Z,77.47
2023-02-15T15:42:32.380Z,79.90
2023-02-15T15:46:03.382Z,89.82
2023-02-15T15:49:18.736Z,91.88
2023-02-15T15:52:23.848Z,99.93
2023-02-15T15:55:31.585Z,76.95
2023-02-15T15:58:36.226Z,74.85
2023-02-15T16:01:43.537Z,77.93
2023-02-15T16:04:48.715Z,94.63
2023-02-15T16:07:52.996Z,94.25
2023-02-15T16:10:58.691Z,79.40
2023-02-15T16:14:02.774Z,72.18
2023-02-15T16:17:15.055Z,77.73
2023-02-15T16:20:32.359Z,84.88
2023-02-15T16:23:36.663Z,72.65
2023-02-15T16:26:59.814Z,60.90
2023-02-15T16:30:24.921Z,80.30
2023-02-15T16:33:37.602Z,77.72
2023-02-15T16:36:41.792Z,63.83
2023-02-15T16:39:49.049Z,76.80
2023-02-15T16:43:05.332Z,56.08
2023-02-15T16:46:27.417Z,57.10
2023-02-15T16:49:35.114Z,65.57
2023-02-15T16:52:43.736Z,66.30
2023-02-15T16:56:01.752Z,80.25
2023-02-15T16:59:06.676Z,53.70
2023-02-15T17:02:37.293Z,49.60
2023-02-15T17:05:45.772Z,58.45
2023-02-15T17:08:50.482Z,62.78
2023-02-15T17:11:54.890Z,71.10
2023-02-15T17:14:59.323Z,63.78
2023-02-15T17:18:12.609Z,68.60
2023-02-15T17:21:25.061Z,67.68
2023-02-15T17:24:36.617Z,57.28
2023-02-15T17:27:41.738Z,55.88
2023-02-15T17:33:54.714Z,47.10
2023-02-15T17:37:03.282Z,57.83
2023-02-15T17:40:20.150Z,61.40
2023-02-15T17:43:25.276Z,49.28
2023-02-15T17:46:35.500Z,51.83
2023-02-15T17:49:39.770Z,50.67
2023-02-15T17:52:44.004Z,45.05
2023-02-15T17:55:48.328Z,49.33
2023-02-15T17:58:52.866Z,44.42
2023-02-15T18:02:16.071Z,57.75
2023-02-15T18:05:39.747Z,47.10
2023-02-15T18:09:02.682Z,53.20
2023-02-15T18:12:25.442Z,55.88
2023-02-15T18:15:29.996Z,43.08
2023-02-15T18:18:34.690Z,60.22
2023-02-15T18:21:39.117Z,64.10
2023-02-15T18:24:44.014Z,61.73
2023-02-15T18:27:48.487Z,75.53
2023-02-15T18:30:52.828Z,71.77
2023-02-15T18:34:00.779Z,59.40
2023-02-15T18:37:10.646Z,76.70
2023-02-15T18:40:20.711Z,65.70
2023-02-15T18:43:25.468Z,64.88
2023-02-15T18:46:30.300Z,70.05
2023-02-15T18:49:34.832Z,62.08
2023-02-15T18:52:40.075Z,72.40
2023-02-15T18:55:44.333Z,71.25
2023-02-15T18:58:49.152Z,47.65
2023-02-15T19:04:58.643Z,88.55
2023-02-15T19:08:03.832Z,86.83
2023-02-15T19:11:15.316Z,91.07
2023-02-15T19:14:32.062Z,99.85
2023-02-15T19:17:36.055Z,78.20
2023-02-15T19:20:44.398Z,70.73
2023-02-15T19:24:00.637Z,97.38
2023-02-15T19:27:07.854Z,102.68
2023-02-15T19:30:24.935Z,93.88
2023-02-15T19:33:29.470Z,104.70
2023-02-15T19:36:34.736Z,79.15
2023-02-15T19:42:44.758Z,122.50
2023-02-15T19:45:52.392Z,120.57
2023-02-15T19:48:57.094Z,117.18
2023-02-15T19:52:01.641Z,144.77
2023-02-15T19:55:06.312Z,128.67
2023-02-15T19:58:13.879Z,164.00
2023-02-15T20:01:19.284Z,154.75
2023-02-15T20:04:25.290Z,151.05
2023-02-15T20:07:29.865Z,196.95
2023-02-15T20:10:35.590Z,226.27
2023-02-15T20:13:40.914Z,164.00
2023-02-15T20:16:45.034Z,152.98
2023-02-15T20:19:49.441Z,167.20
2023-02-15T20:22:53.945Z,162.00
2023-02-15T20:26:00.042Z,160.25
2023-02-15T20:29:04.435Z,171.85
2023-02-15T20:32:12.624Z,185.98
2023-02-15T20:35:19.534Z,206.88
2023-02-15T20:38:28.097Z,226.27
2023-02-15T20:41:35.648Z,267.05
2023-02-15T20:44:41.202Z,203.55
2023-02-15T20:47:48.471Z,266.42
2023-02-15T20:50:53.584Z,280.30
2023-02-15T20:53:58.086Z,262.02
2023-02-15T20:57:02.843Z,323.90
2023-02-15T21:00:15.716Z,197.85
2023-02-15T21:03:22.619Z,222.40
2023-02-15T21:06:26.928Z,250.02
2023-02-15T21:09:31.683Z,272.08
2023-02-15T21:12:36.236Z,364.17
2023-02-15T21:15:41.053Z,277.98
2023-02-15T21:18:45.592Z,180.65
2023-02-15T21:21:53.127Z,304.23
2023-02-15T21:24:57.677Z,271.65
2023-02-15T21:28:02.360Z,292.35
2023-02-15T21:34:20.102Z,210.48
2023-02-15T21:37:33.079Z,326.77
2023-02-15T21:40:37.337Z,279.50
2023-02-15T21:44:00.057Z,169.80
2023-02-15T21:47:23.490Z,179.80
2023-02-15T21:50:46.163Z,251.07
2023-02-15T21:53:50.511Z,231.68
2023-02-15T21:56:54.882Z,316.83
2023-02-15T21:59:59.366Z,207.50
2023-02-15T22:03:05.446Z,190.97
2023-02-15T22:06:12.505Z,329.35
2023-02-15T22:09:22.567Z,265.55
2023-02-15T22:12:27.091Z,214.27
2023-02-15T22:15:36.788Z,275.63
2023-02-15T22:18:41.646Z,253.48
2023-02-15T22:21:45.970Z,331.23
2023-02-15T22:24:50.299Z,289.43
2023-02-15T22:27:55.207Z,268.38
2023-02-15T22:30:59.756Z,182.73
2023-02-15T22:34:04.402Z,253.10
2023-02-15T22:37:08.628Z,224.30
2023-02-15T22:40:17.617Z,179.20
2023-02-15T22:43:34.994Z,196.60
2023-02-15T22:46:40.604Z,199.95
2023-02-15T22:49:44.872Z,244.23
2023-02-15T22:52:50.818Z,148.32
2023-02-15T22:55:56.033Z,196.57
2023-02-15T22:59:04.492Z,285.42
2023-02-15T23:02:13.177Z,186.02
2023-02-15T23:05:26.810Z,219.55
2023-02-15T23:08:31.431Z,265.45
2023-02-15T23:11:36.092Z,202.57
2023-02-15T23:14:40.859Z,199.90
2023-02-15T23:17:45.391Z,187.38
2023-02-15T23:20:56.061Z,236.83
2023-02-15T23:24:22.481Z,262.52
2023-02-15T23:27:45.211Z,246.63
2023-02-15T23:30:50.371Z,219.63
2023-02-15T23:33:55.250Z,187.20
2023-02-15T23:36:59.563Z,228.95
2023-02-15T23:40:22.465Z,175.95
2023-02-15T23:43:26.830Z,270.60
2023-02-15T23:46:41.607Z,268.20
2023-02-15T23:49:47.804Z,264.80
2023-02-15T23:52:54.007Z,301.80
2023-02-15T23:55:59.487Z,245.35
2023-02-15T23:59:04.497Z,232.98
